Time;durP1;ratioP1;P1;durP2;ratioP2;P2;SDS_P1;SDS_P2;PMS_P1;PMS_P2;Temp;Humidity;BMP_temperature;BMP_pressure;BME280_temperature;BME280_humidity;BME280_pressure;Samples;Min_cycle;Max_cycle;Signal;HPM_P1;HPM_P2
2022/07/26 00:01:27;;;;;;;3.88;1.23;;;19.20;91.20;;;;;;5039700;28;20028;-60
2022/07/26 00:03:53;;;;;;;7.82;1.23;;;19.10;91.60;;;;;;5042362;28;20078;-58
2022/07/26 00:06:19;;;;;;;6.97;1.30;;;19.10;91.90;;;;;;5047978;28;20025;-58
2022/07/26 00:08:45;;;;;;;5.32;1.15;;;18.90;92.30;;;;;;5043562;28;20486;-59
2022/07/26 00:11:10;;;;;;;3.95;0.80;;;18.90;92.50;;;;;;5041087;28;20091;-60
2022/07/26 00:13:36;;;;;;;5.03;1.15;;;18.80;93.10;;;;;;5051877;28;20444;-58
2022/07/26 00:16:03;;;;;;;2.75;0.80;;;18.70;93.50;;;;;;5036808;28;20025;-59
2022/07/26 00:18:29;;;;;;;5.18;1.00;;;18.70;93.50;;;;;;5048190;28;20090;-57
2022/07/26 00:20:54;;;;;;;3.55;1.00;;;18.70;93.60;;;;;;5046721;28;20029;-57
2022/07/26 00:23:20;;;;;;;5.07;1.10;;;18.60;93.80;;;;;;5048709;28;20044;-55
2022/07/26 00:25:45;;;;;;;3.97;1.05;;;18.50;94.10;;;;;;5040125;28;20029;-57
2022/07/26 00:28:12;;;;;;;3.60;1.08;;;18.50;94.60;;;;;;5045166;28;20025;-55
2022/07/26 00:30:37;;;;;;;4.57;0.88;;;18.40;94.80;;;;;;5040532;28;20036;-58
2022/07/26 00:33:04;;;;;;;5.60;1.02;;;18.40;94.90;;;;;;5043191;28;20545;-55
2022/07/26 00:35:29;;;;;;;10.65;1.23;;;18.40;95.50;;;;;;5043749;28;20029;-57
2022/07/26 00:37:55;;;;;;;6.10;1.10;;;18.30;95.40;;;;;;5044153;28;20035;-58
2022/07/26 00:40:21;;;;;;;3.15;1.17;;;18.30;95.90;;;;;;5042810;28;20072;-58
2022/07/26 00:42:46;;;;;;;4.47;1.33;;;18.20;96.00;;;;;;5044113;28;20071;-56
2022/07/26 00:45:13;;;;;;;3.42;1.10;;;18.20;96.10;;;;;;5043759;28;20040;-55
2022/07/26 00:47:39;;;;;;;4.00;1.27;;;18.20;96.30;;;;;;5041118;28;20038;-60
2022/07/26 00:50:07;;;;;;;5.55;1.52;;;18.30;96.40;;;;;;5045235;28;20037;-59
2022/07/26 00:52:33;;;;;;;4.20;1.30;;;18.30;96.40;;;;;;5050469;28;20029;-59
2022/07/26 00:54:58;;;;;;;5.05;1.05;;;18.30;96.40;;;;;;5050401;28;20039;-64
2022/07/26 00:57:24;;;;;;;3.88;1.10;;;18.40;96.50;;;;;;5040736;28;20093;-60
2022/07/26 00:59:50;;;;;;;12.25;2.08;;;18.40;96.70;;;;;;5046217;28;20817;-51
2022/07/26 01:02:16;;;;;;;9.90;2.17;;;18.50;96.50;;;;;;5042356;28;20099;-57
2022/07/26 01:04:43;;;;;;;12.48;1.85;;;18.50;96.70;;;;;;5051535;28;20079;-59
2022/07/26 01:07:09;;;;;;;6.82;1.73;;;18.40;96.80;;;;;;5042290;28;20047;-55
2022/07/26 01:09:44;;;;;;;7.18;1.05;;;18.30;97.10;;;;;;5063719;28;20520;-54
2022/07/26 01:12:10;;;;;;;5.75;1.75;;;18.30;97.40;;;;;;5049684;28;20021;-57
2022/07/26 01:14:35;;;;;;;5.13;1.25;;;18.20;97.60;;;;;;5047948;28;20028;-56
2022/07/26 01:17:01;;;;;;;5.45;1.40;;;18.10;97.90;;;;;;5047908;28;20032;-58
2022/07/26 01:19:27;;;;;;;3.55;1.23;;;18.10;98.40;;;;;;5046846;28;20040;-54
2022/07/26 01:21:52;;;;;;;4.57;1.25;;;18.00;98.50;;;;;;5052128;28;20398;-56
2022/07/26 01:24:18;;;;;;;6.25;1.17;;;18.00;98.80;;;;;;5050033;28;20116;-54
2022/07/26 01:26:44;;;;;;;1.92;1.10;;;17.90;99.00;;;;;;5050214;28;20124;-53
2022/07/26 01:29:10;;;;;;;5.05;1.10;;;17.90;99.50;;;;;;5049597;28;20036;-56
2022/07/26 01:31:36;;;;;;;3.42;1.20;;;17.90;99.90;;;;;;5048838;28;20021;-56
2022/07/26 01:34:01;;;;;;;5.32;1.83;;;17.90;99.70;;;;;;5041641;28;20066;-57
2022/07/26 01:36:27;;;;;;;11.57;1.75;;;17.90;99.90;;;;;;5039928;28;20630;-57
2022/07/26 01:38:52;;;;;;;5.57;1.40;;;17.90;99.80;;;;;;5040716;28;20029;-60
2022/07/26 01:41:18;;;;;;;6.25;1.17;;;17.90;99.90;;;;;;5042717;28;20100;-59
2022/07/26 01:43:44;;;;;;;5.72;2.20;;;18.00;99.90;;;;;;5042450;28;20123;-57
2022/07/26 01:46:09;;;;;;;4.55;1.52;;;17.90;99.90;;;;;;5046543;28;20036;-58
2022/07/26 01:48:36;;;;;;;5.88;1.65;;;17.90;99.90;;;;;;5046782;28;20033;-55
2022/07/26 01:51:01;;;;;;;4.90;1.17;;;17.90;99.90;;;;;;5044578;28;20029;-58
2022/07/26 01:53:27;;;;;;;2.08;0.95;;;17.90;99.90;;;;;;5045109;28;20407;-59
2022/07/26 01:55:53;;;;;;;1.88;0.90;;;17.90;99.90;;;;;;5047030;28;20031;-60
2022/07/26 01:58:18;;;;;;;4.45;1.27;;;17.90;99.90;;;;;;5048522;28;20025;-58
2022/07/26 02:00:44;;;;;;;4.38;1.40;;;17.90;99.90;;;;;;5048908;28;20040;-59
2022/07/26 02:03:10;;;;;;;3.53;1.08;;;18.00;99.90;;;;;;5042887;28;20029;-58
2022/07/26 02:05:35;;;;;;;3.45;1.20;;;17.90;99.90;;;;;;5047867;28;20398;-60
2022/07/26 02:08:01;;;;;;;7.70;1.50;;;17.90;99.90;;;;;;5043466;28;20112;-60
2022/07/26 02:13:12;;;;;;;5.75;1.17;;;17.80;99.90;;;;;;5036860;28;20031;-58
2022/07/26 02:15:38;;;;;;;7.10;1.40;;;17.80;99.90;;;;;;5038919;28;20380;-56
2022/07/26 02:18:04;;;;;;;4.65;1.40;;;17.70;99.90;;;;;;5045764;28;20040;-58
2022/07/26 02:20:32;;;;;;;8.75;2.05;;;17.70;99.90;;;;;;5039279;23;20662;-58
2022/07/26 02:22:59;;;;;;;6.53;1.92;;;17.60;99.90;;;;;;5012438;28;20045;-57
2022/07/26 02:25:25;;;;;;;11.13;1.50;;;17.60;99.90;;;;;;5011022;28;20431;-57
2022/07/26 02:27:50;;;;;;;5.13;1.70;;;17.60;99.90;;;;;;5009302;28;20034;-59
2022/07/26 02:30:16;;;;;;;4.88;1.35;;;17.50;99.90;;;;;;5011061;28;20095;-59
2022/07/26 02:32:42;;;;;;;3.88;1.25;;;17.50;99.90;;;;;;5012513;28;20022;-56
2022/07/26 02:35:08;;;;;;;14.77;3.50;;;17.50;99.90;;;;;;5012257;28;20037;-58
2022/07/26 02:37:34;;;;;;;2.47;1.05;;;17.50;99.90;;;;;;5008934;28;20488;-58
2022/07/26 02:40:01;;;;;;;7.88;1.73;;;17.50;99.90;;;;;;5012943;28;20034;-60
2022/07/26 02:42:27;;;;;;;12.00;1.75;;;17.60;99.90;;;;;;5013107;28;20053;-56
2022/07/26 02:44:53;;;;;;;6.35;1.60;;;17.60;99.90;;;;;;5011935;28;20480;-57
2022/07/26 02:47:19;;;;;;;14.68;1.77;;;17.60;99.90;;;;;;5005069;28;20434;-58
2022/07/26 02:49:44;;;;;;;7.72;1.83;;;17.60;99.90;;;;;;5002806;28;20153;-57
2022/07/26 02:52:10;;;;;;;7.78;1.50;;;17.60;99.90;;;;;;5010413;28;20505;-58
2022/07/26 02:54:36;;;;;;;4.72;1.70;;;17.60;99.90;;;;;;5006604;28;20061;-58
2022/07/26 02:57:01;;;;;;;7.43;2.08;;;17.60;99.90;;;;;;5013470;28;20515;-60
2022/07/26 02:59:27;;;;;;;8.52;1.98;;;17.70;99.90;;;;;;5010379;28;20018;-57
2022/07/26 03:01:53;;;;;;;4.43;1.60;;;17.70;99.90;;;;;;5011140;28;20545;-58
2022/07/26 03:04:18;;;;;;;6.13;1.80;;;17.70;99.90;;;;;;5008881;28;20025;-59
2022/07/26 03:06:44;;;;;;;4.78;1.38;;;17.70;99.90;;;;;;5011149;28;20069;-58
2022/07/26 03:09:09;;;;;;;9.13;2.10;;;17.70;99.90;;;;;;5009010;28;20388;-59
2022/07/26 03:11:35;;;;;;;8.82;1.65;;;17.70;99.90;;;;;;5012612;28;20491;-58
2022/07/26 03:14:01;;;;;;;9.07;1.92;;;17.70;99.90;;;;;;5009847;28;20030;-56
2022/07/26 03:16:26;;;;;;;8.50;2.25;;;17.70;99.90;;;;;;5010996;28;20655;-59
2022/07/26 03:18:52;;;;;;;6.60;1.58;;;17.70;99.90;;;;;;5007534;28;20029;-57
2022/07/26 03:21:17;;;;;;;8.48;2.08;;;17.70;99.90;;;;;;5011296;28;20124;-58
2022/07/26 03:23:43;;;;;;;6.97;1.85;;;17.70;99.90;;;;;;5003905;28;20121;-58
2022/07/26 03:26:09;;;;;;;8.85;1.90;;;17.70;99.90;;;;;;5010459;28;20054;-58
2022/07/26 03:28:35;;;;;;;8.15;1.83;;;17.60;99.90;;;;;;5003100;28;20030;-58
2022/07/26 03:31:01;;;;;;;6.03;1.58;;;17.60;99.90;;;;;;5009675;28;20026;-58
2022/07/26 03:33:27;;;;;;;6.15;1.55;;;17.50;99.90;;;;;;5011842;28;20088;-59
2022/07/26 03:35:53;;;;;;;8.65;1.75;;;17.50;99.90;;;;;;5010850;28;20033;-59
2022/07/26 03:38:18;;;;;;;5.88;1.48;;;17.40;99.90;;;;;;5009843;28;20399;-58
2022/07/26 03:40:44;;;;;;;9.32;2.08;;;17.40;99.90;;;;;;5010843;28;20502;-59
2022/07/26 03:43:09;;;;;;;11.48;2.20;;;17.50;99.90;;;;;;5009308;28;20431;-60
2022/07/26 03:45:35;;;;;;;7.57;2.30;;;17.50;99.90;;;;;;5008640;28;20109;-58
2022/07/26 03:48:01;;;;;;;9.20;2.63;;;17.50;99.90;;;;;;5003147;28;20041;-58
2022/07/26 03:50:26;;;;;;;6.45;1.80;;;17.60;99.90;;;;;;5010372;28;20549;-58
2022/07/26 03:52:52;;;;;;;7.65;2.08;;;17.60;99.90;;;;;;5011248;28;20105;-59
2022/07/26 03:58:02;;;;;;;;;;;17.60;99.90;;;;;;5004460;28;20518;-59
2022/07/26 04:00:27;;;;;;;5.53;1.92;;;17.60;99.90;;;;;;5009406;28;19944;-57
2022/07/26 04:02:53;;;;;;;10.15;2.40;;;17.70;99.90;;;;;;5004729;28;20065;-59
2022/07/26 04:05:18;;;;;;;8.95;2.65;;;17.70;99.90;;;;;;4999892;28;20035;-59
2022/07/26 04:07:45;;;;;;;7.82;2.30;;;17.70;99.90;;;;;;5010835;28;20072;-58
2022/07/26 04:10:11;;;;;;;12.13;3.03;;;17.70;99.90;;;;;;4999972;28;20023;-59
2022/07/26 04:12:37;;;;;;;5.07;2.00;;;17.70;99.90;;;;;;5002257;28;20034;-59
2022/07/26 04:15:04;;;;;;;11.40;1.80;;;17.80;99.90;;;;;;5010125;28;20036;-58
2022/07/26 04:17:39;;;;;;;5.90;1.75;;;17.80;99.90;;;;;;5008016;28;20044;-59
2022/07/26 04:20:07;;;;;;;5.80;1.75;;;17.90;99.90;;;;;;5010897;28;20026;-57
2022/07/26 04:22:37;;;;;;;8.75;1.98;;;17.90;99.90;;;;;;5010365;28;20100;-58
2022/07/26 04:25:04;;;;;;;8.52;1.60;;;17.80;99.90;;;;;;5001396;28;20488;-57
2022/07/26 04:27:30;;;;;;;7.43;1.75;;;17.90;99.90;;;;;;5007794;28;20030;-58
2022/07/26 04:29:55;;;;;;;4.95;1.70;;;17.90;99.90;;;;;;5009670;28;20026;-59
2022/07/26 04:32:21;;;;;;;7.13;1.95;;;17.90;99.90;;;;;;5008638;28;20037;-56
2022/07/26 04:34:47;;;;;;;10.45;2.30;;;17.90;99.90;;;;;;5005836;28;20034;-58
2022/07/26 04:37:12;;;;;;;9.75;2.20;;;17.90;99.90;;;;;;5011176;28;20404;-58
2022/07/26 04:39:38;;;;;;;10.88;2.35;;;17.90;99.90;;;;;;5007680;28;20124;-56
2022/07/26 04:42:03;;;;;;;10.00;2.38;;;17.90;99.90;;;;;;5010999;28;20029;-59
2022/07/26 04:44:29;;;;;;;8.75;2.00;;;17.90;99.90;;;;;;5007271;28;20116;-59
2022/07/26 04:46:55;;;;;;;9.98;2.33;;;18.00;99.90;;;;;;5010084;28;20034;-59
2022/07/26 04:49:20;;;;;;;7.88;2.00;;;18.00;99.90;;;;;;5008686;28;20341;-58
2022/07/26 04:51:46;;;;;;;15.13;2.20;;;17.90;99.90;;;;;;5009242;28;20037;-57
2022/07/26 04:54:11;;;;;;;9.75;2.75;;;17.90;99.90;;;;;;5009752;28;20030;-58
2022/07/26 04:56:37;;;;;;;11.65;2.20;;;17.90;99.90;;;;;;5010312;28;20034;-56
2022/07/26 04:59:03;;;;;;;5.60;2.05;;;18.00;99.90;;;;;;5009546;28;20030;-59
2022/07/26 05:01:28;;;;;;;6.03;1.88;;;18.00;99.90;;;;;;5009562;28;20549;-58
2022/07/26 05:03:54;;;;;;;5.95;1.73;;;18.00;99.90;;;;;;5009190;28;20061;-59
2022/07/26 05:06:19;;;;;;;10.68;1.90;;;18.00;99.90;;;;;;5010319;28;20088;-59
2022/07/26 05:08:45;;;;;;;8.48;2.17;;;18.00;99.90;;;;;;5008597;28;20037;-56
2022/07/26 05:11:11;;;;;;;7.70;2.00;;;18.10;99.90;;;;;;5010488;28;20026;-59
2022/07/26 05:13:36;;;;;;;7.20;2.13;;;18.10;99.90;;;;;;5008723;28;20036;-59
2022/07/26 05:16:02;;;;;;;11.55;2.42;;;18.20;99.90;;;;;;5002282;28;20044;-58
2022/07/26 05:18:28;;;;;;;11.10;2.00;;;18.30;99.90;;;;;;5007093;28;20105;-59
2022/07/26 05:20:54;;;;;;;10.32;2.35;;;18.30;99.90;;;;;;5010261;28;20059;-56
2022/07/26 05:23:20;;;;;;;8.07;2.67;;;18.40;99.90;;;;;;5008689;28;20033;-58
2022/07/26 05:25:46;;;;;;;15.65;3.22;;;18.40;99.90;;;;;;5010016;28;20460;-59
2022/07/26 05:28:11;;;;;;;10.55;2.35;;;18.40;99.90;;;;;;5009182;28;20041;-57
2022/07/26 05:30:37;;;;;;;6.50;2.22;;;18.50;99.90;;;;;;5010271;28;20032;-58
2022/07/26 05:33:03;;;;;;;8.98;2.40;;;18.50;99.90;;;;;;5008628;28;20045;-59
2022/07/26 05:35:28;;;;;;;7.07;2.40;;;18.50;99.90;;;;;;5006378;28;20033;-59
2022/07/26 05:37:55;;;;;;;8.60;2.03;;;18.60;99.90;;;;;;5006466;28;20038;-58
2022/07/26 05:40:21;;;;;;;10.00;2.63;;;18.50;99.90;;;;;;5008672;28;20041;-59
2022/07/26 05:42:46;;;;;;;7.03;1.92;;;18.60;99.90;;;;;;5008246;28;20088;-57
2022/07/26 05:45:12;;;;;;;7.18;2.40;;;18.50;99.90;;;;;;5006140;28;20619;-59
2022/07/26 05:47:38;;;;;;;10.90;2.38;;;18.50;99.90;;;;;;5007400;28;20030;-58
2022/07/26 05:50:05;;;;;;;10.43;2.70;;;18.40;99.90;;;;;;5008371;28;20080;-59
2022/07/26 05:52:31;;;;;;;14.63;3.25;;;18.50;99.90;;;;;;5009073;28;20041;-59
2022/07/26 05:54:56;;;;;;;9.45;3.28;;;18.50;99.90;;;;;;5008458;28;20029;-58
2022/07/26 05:57:22;;;;;;;15.73;2.85;;;18.50;99.90;;;;;;5013067;28;20025;-59
2022/07/26 05:59:48;;;;;;;18.05;3.05;;;18.50;99.90;;;;;;5011028;28;20133;-59
2022/07/26 06:02:13;;;;;;;12.13;3.35;;;18.40;99.90;;;;;;5007297;28;20209;-56
2022/07/26 06:04:39;;;;;;;13.40;3.30;;;18.40;99.90;;;;;;5008978;28;20157;-59
2022/07/26 06:07:05;;;;;;;12.10;3.55;;;18.40;99.90;;;;;;5005489;28;20392;-58
2022/07/26 06:09:30;;;;;;;14.57;2.47;;;18.30;99.90;;;;;;5011306;28;20037;-58
2022/07/26 06:11:56;;;;;;;8.15;3.58;;;18.30;99.90;;;;;;5013576;28;20504;-59
2022/07/26 06:14:22;;;;;;;10.02;3.15;;;18.40;99.90;;;;;;5011413;28;20550;-58
2022/07/26 06:16:48;;;;;;;11.27;3.45;;;18.40;99.90;;;;;;5012778;28;20029;-59
2022/07/26 06:19:14;;;;;;;18.67;4.93;;;18.50;99.90;;;;;;5011024;28;20396;-58
2022/07/26 06:21:41;;;;;;;14.40;4.88;;;18.50;99.90;;;;;;5013451;28;20029;-59
2022/07/26 06:24:07;;;;;;;10.20;3.25;;;18.50;99.90;;;;;;5012591;28;20042;-59
2022/07/26 06:26:33;;;;;;;21.85;4.43;;;18.50;99.90;;;;;;5011463;28;20101;-59
2022/07/26 06:28:58;;;;;;;24.50;3.83;;;18.50;99.90;;;;;;5003774;28;20025;-58
2022/07/26 06:31:24;;;;;;;18.15;4.18;;;18.50;99.90;;;;;;5008267;28;20055;-57
2022/07/26 06:33:50;;;;;;;13.90;4.60;;;18.50;99.90;;;;;;5010661;28;20560;-58
2022/07/26 06:36:16;;;;;;;16.02;4.47;;;18.60;99.90;;;;;;5008376;28;20403;-60
2022/07/26 06:38:41;;;;;;;11.63;3.88;;;18.60;99.90;;;;;;5011008;28;20042;-59
2022/07/26 06:41:07;;;;;;;17.05;3.90;;;18.60;99.90;;;;;;5010276;28;20431;-59
2022/07/26 06:43:33;;;;;;;17.85;4.53;;;18.80;99.90;;;;;;5010548;28;20029;-60
2022/07/26 06:45:58;;;;;;;15.45;5.10;;;19.00;99.90;;;;;;5008744;28;20060;-58
2022/07/26 06:48:24;;;;;;;15.07;4.53;;;19.10;99.90;;;;;;5013023;28;20077;-59
2022/07/26 06:50:50;;;;;;;17.02;5.22;;;19.20;99.90;;;;;;5010615;28;20030;-59
2022/07/26 06:53:16;;;;;;;14.77;4.60;;;19.20;99.90;;;;;;4989586;28;20035;-58
2022/07/26 06:55:42;;;;;;;19.20;5.80;;;19.20;99.90;;;;;;4986153;28;20035;-57
2022/07/26 06:58:07;;;;;;;22.33;4.78;;;19.10;99.90;;;;;;4988986;28;20500;-59
2022/07/26 07:00:33;;;;;;;12.48;4.70;;;19.00;99.90;;;;;;4988566;28;20065;-58
2022/07/26 07:02:59;;;;;;;13.00;4.90;;;19.10;99.90;;;;;;4987070;28;20066;-58
2022/07/26 07:05:24;;;;;;;13.27;4.70;;;19.10;99.90;;;;;;4990852;28;20076;-58
2022/07/26 07:07:50;;;;;;;18.92;5.50;;;19.10;99.90;;;;;;4990304;28;20700;-58
2022/07/26 07:10:16;;;;;;;11.95;4.70;;;19.00;99.90;;;;;;4983921;28;20019;-58
2022/07/26 07:12:43;;;;;;;14.75;4.95;;;19.10;99.90;;;;;;4991356;28;20516;-58
2022/07/26 07:15:10;;;;;;;15.30;5.13;;;19.20;99.90;;;;;;4987470;28;20440;-57
2022/07/26 07:17:36;;;;;;;13.73;4.78;;;19.40;99.90;;;;;;4984131;28;20033;-59
2022/07/26 07:20:03;;;;;;;15.57;4.88;;;19.40;99.90;;;;;;4982466;28;20023;-57
2022/07/26 07:22:29;;;;;;;13.30;5.05;;;19.60;99.90;;;;;;4982575;28;20034;-58
2022/07/26 07:24:55;;;;;;;17.20;5.05;;;19.60;99.90;;;;;;4978737;28;20034;-57
2022/07/26 07:27:20;;;;;;;12.25;5.28;;;19.70;99.90;;;;;;4987769;28;20106;-58
2022/07/26 07:29:46;;;;;;;16.00;4.72;;;19.90;99.90;;;;;;4989948;28;20107;-59
2022/07/26 07:32:12;;;;;;;15.68;4.88;;;20.00;99.90;;;;;;4987601;28;20435;-58
2022/07/26 07:34:38;;;;;;;10.77;3.92;;;20.10;99.90;;;;;;4987623;28;20105;-58
2022/07/26 07:37:03;;;;;;;16.40;5.35;;;20.40;99.90;;;;;;4988026;28;20026;-58
2022/07/26 07:39:30;;;;;;;13.80;5.15;;;20.60;99.90;;;;;;4986730;28;20042;-60
2022/07/26 07:41:55;;;;;;;17.63;5.22;;;20.60;99.90;;;;;;4984572;28;20034;-59
2022/07/26 07:44:21;;;;;;;12.90;4.78;;;20.70;99.90;;;;;;4988511;28;20052;-57
2022/07/26 07:46:47;;;;;;;15.48;4.47;;;20.90;99.90;;;;;;4979433;28;20034;-59
2022/07/26 07:49:13;;;;;;;15.75;4.60;;;21.10;99.90;;;;;;4976537;28;20022;-58
2022/07/26 07:51:38;;;;;;;15.10;5.43;;;20.80;99.90;;;;;;4986317;28;20022;-59
2022/07/26 07:54:04;;;;;;;19.70;5.88;;;20.90;99.90;;;;;;4987071;28;20030;-59
2022/07/26 07:56:30;;;;;;;25.67;6.55;;;20.80;99.90;;;;;;4989913;28;20052;-57
2022/07/26 07:58:56;;;;;;;20.38;5.55;;;20.60;99.90;;;;;;4976901;28;21005;-59
2022/07/26 08:01:22;;;;;;;14.75;5.25;;;20.50;99.90;;;;;;4985468;28;20089;-58
2022/07/26 08:03:47;;;;;;;16.90;6.18;;;20.40;99.90;;;;;;4999713;28;20104;-59
2022/07/26 08:06:13;;;;;;;14.23;4.95;;;20.50;99.90;;;;;;4996277;28;20473;-59
2022/07/26 08:08:39;;;;;;;17.40;5.60;;;20.70;99.90;;;;;;4995743;28;20079;-58
2022/07/26 08:11:05;;;;;;;14.40;5.53;;;20.70;99.90;;;;;;4999230;28;20451;-59
2022/07/26 08:13:31;;;;;;;22.42;5.05;;;20.80;99.90;;;;;;4989312;28;20036;-58
2022/07/26 08:15:56;;;;;;;31.27;7.50;;;20.80;99.90;;;;;;4987599;28;20113;-59
2022/07/26 08:18:23;;;;;;;17.00;5.55;;;21.00;99.90;;;;;;4977929;28;20026;-58
2022/07/26 08:20:50;;;;;;;25.98;6.53;;;21.00;99.90;;;;;;4990306;28;20117;-58
2022/07/26 08:23:16;;;;;;;24.35;6.55;;;21.10;99.90;;;;;;4980068;28;20023;-58
2022/07/26 08:25:42;;;;;;;16.63;6.90;;;21.20;99.90;;;;;;4982984;28;20161;-58
2022/07/26 08:28:07;;;;;;;19.40;5.90;;;21.50;99.90;;;;;;4982913;28;20031;-58
2022/07/26 08:30:33;;;;;;;13.05;6.05;;;21.70;99.90;;;;;;4987534;28;20034;-58
2022/07/26 08:32:59;;;;;;;12.35;6.10;;;21.90;99.90;;;;;;4985402;28;20023;-60
2022/07/26 08:35:25;;;;;;;22.92;6.85;;;22.10;99.90;;;;;;4986833;28;20068;-60
2022/07/26 08:37:50;;;;;;;17.00;6.40;;;22.30;99.90;;;;;;4985890;28;20524;-59
2022/07/26 08:40:16;;;;;;;14.70;5.15;;;22.90;99.90;;;;;;4982043;28;20444;-59
2022/07/26 08:42:52;;;;;;;16.15;4.82;;;23.40;99.90;;;;;;4983603;23;20400;-61
2022/07/26 08:45:26;;;;;;;12.50;4.45;;;23.70;99.50;;;;;;4948564;28;20035;-58
2022/07/26 08:47:52;;;;;;;13.70;4.72;;;24.00;98.90;;;;;;4952148;28;20039;-59
2022/07/26 08:50:18;;;;;;;12.63;4.95;;;24.20;97.60;;;;;;4947846;29;20019;-58
2022/07/26 08:52:44;;;;;;;10.93;4.45;;;24.10;97.40;;;;;;4941342;28;20093;-60
2022/07/26 08:55:15;;;;;;;12.57;4.78;;;24.40;96.80;;;;;;4949956;28;20027;-59
2022/07/26 08:57:40;;;;;;;16.30;5.47;;;24.00;96.50;;;;;;4942847;29;20516;-58
2022/07/26 09:00:30;;;;;;;14.15;4.43;;;23.70;97.40;;;;;;4948779;29;20031;-59
2022/07/26 09:02:58;;;;;;;18.52;5.40;;;23.50;97.80;;;;;;4951444;28;20043;-60
2022/07/26 09:05:42;;;;;;;23.30;6.30;;;23.30;98.40;;;;;;4948302;28;20122;-59
2022/07/26 09:08:25;;;;;;;16.58;7.15;;;22.70;99.90;;;;;;4950272;28;20042;-59
2022/07/26 09:10:51;;;;;;;;;;;22.10;99.90;;;;;;4948455;28;20059;-57
2022/07/26 09:13:17;;;;;;;19.17;7.18;;;21.70;99.90;;;;;;4948484;28;20336;-57
2022/07/26 09:15:43;;;;;;;18.40;8.43;;;21.50;99.90;;;;;;4943748;29;20093;-55
2022/07/26 09:18:25;;;;;;;15.32;8.27;;;21.40;99.90;;;;;;4949953;29;20130;-55
2022/07/26 09:20:51;;;;;;;20.80;8.05;;;21.40;99.90;;;;;;4923078;28;20056;-58
2022/07/26 09:23:16;;;;;;;19.58;7.88;;;22.40;99.90;;;;;;4930025;29;20058;-57
2022/07/26 09:25:44;;;;;;;18.20;7.30;;;23.20;99.90;;;;;;4932248;29;20109;-54
2022/07/26 09:28:28;;;;;;;18.95;6.50;;;24.20;99.90;;;;;;4931443;29;20568;-60
2022/07/26 09:31:00;;;;;;;16.50;7.00;;;24.70;99.90;;;;;;4934033;29;20051;-57
2022/07/26 09:33:45;;;;;;;12.37;6.67;;;24.50;99.90;;;;;;4935417;29;20090;-59
2022/07/26 09:36:11;;;;;;;12.55;6.32;;;24.10;99.90;;;;;;4935512;29;20043;-56
2022/07/26 09:38:51;;;;;;;17.67;7.45;;;24.00;99.90;;;;;;4934930;29;20028;-59
2022/07/26 09:41:21;;;;;;;13.10;6.32;;;24.30;99.90;;;;;;4934759;29;20103;-55
2022/07/26 09:43:48;;;;;;;13.70;5.93;;;24.50;98.20;;;;;;4933343;29;20106;-58
2022/07/26 09:46:14;;;;;;;16.95;6.80;;;24.60;97.60;;;;;;4935376;29;20382;-60
2022/07/26 09:48:40;;;;;;;17.65;7.30;;;25.00;98.40;;;;;;4933972;29;20486;-60
2022/07/26 09:51:06;;;;;;;16.38;6.45;;;25.40;98.10;;;;;;4935161;29;20043;-60
2022/07/26 09:53:39;;;;;;;14.98;6.85;;;26.40;95.70;;;;;;4933542;29;20478;-60
2022/07/26 09:56:05;;;;;;;12.65;6.30;;;26.60;94.10;;;;;;4935579;29;20039;-56
2022/07/26 09:58:32;;;;;;;9.18;5.82;;;26.50;93.90;;;;;;4934642;29;20039;-59
2022/07/26 10:00:58;;;;;;;12.90;5.35;;;26.80;92.10;;;;;;4935396;29;20043;-59
2022/07/26 10:03:23;;;;;;;9.60;5.72;;;26.80;92.10;;;;;;4934634;29;20426;-60
2022/07/26 10:05:49;;;;;;;18.23;6.57;;;27.10;91.00;;;;;;4935597;29;20027;-60
2022/07/26 10:08:17;;;;;;;12.20;5.18;;;27.00;91.90;;;;;;4934666;29;20040;-59
2022/07/26 10:10:54;;;;;;;12.35;5.65;;;26.60;92.40;;;;;;4934679;29;20139;-60
2022/07/26 10:13:20;;;;;;;12.40;5.13;;;26.30;91.70;;;;;;4930356;29;20071;-59
2022/07/26 10:15:49;;;;;;;9.55;5.00;;;26.00;92.00;;;;;;4933547;29;20039;-60
2022/07/26 10:18:36;;;;;;;8.98;5.65;;;25.50;92.20;;;;;;4933199;29;20051;-59
2022/07/26 10:21:19;;;;;;;15.00;5.82;;;24.80;92.70;;;;;;4924069;28;20420;-57
2022/07/26 10:23:49;;;;;;;12.23;6.35;;;24.50;94.20;;;;;;4935104;29;20035;-58
2022/07/26 10:26:33;;;;;;;11.30;5.80;;;24.20;94.50;;;;;;4949757;29;20043;-57
2022/07/26 10:29:23;;;;;;;14.50;5.63;;;24.30;94.60;;;;;;4931752;29;20035;-59
2022/07/26 10:32:12;;;;;;;15.20;6.60;;;24.70;94.00;;;;;;4934113;29;20058;-59
2022/07/26 10:34:39;;;;;;;15.05;6.38;;;24.90;94.90;;;;;;4925058;29;20075;-58
2022/07/26 10:37:08;;;;;;;11.43;5.00;;;25.50;93.20;;;;;;4933273;29;20039;-57
2022/07/26 10:39:34;;;;;;;9.23;4.40;;;26.30;92.10;;;;;;4934389;29;20086;-60
2022/07/26 10:42:05;;;;;;;11.63;4.78;;;26.70;91.00;;;;;;4932332;29;20091;-58
2022/07/26 10:44:34;;;;;;;10.65;4.60;;;26.30;88.00;;;;;;4932462;29;20066;-57
2022/07/26 10:47:03;;;;;;;11.80;5.05;;;25.90;89.90;;;;;;4936809;29;20035;-58
2022/07/26 10:49:33;;;;;;;10.40;5.43;;;24.90;92.30;;;;;;4928275;29;20046;-59
2022/07/26 10:52:06;;;;;;;13.18;5.60;;;24.30;92.80;;;;;;4928445;29;20042;-60
2022/07/26 10:54:51;;;;;;;;;;;23.80;93.50;;;;;;4934903;29;20111;-57
2022/07/26 10:57:17;;;;;;;9.75;5.38;;;23.40;94.90;;;;;;4933030;29;19997;-59
2022/07/26 10:59:42;;;;;;;15.40;6.22;;;23.30;95.40;;;;;;4932585;29;20063;-60
2022/07/26 11:02:17;;;;;;;12.95;6.25;;;23.20;96.10;;;;;;4932301;29;20036;-61
2022/07/26 11:04:42;;;;;;;14.90;5.78;;;23.30;95.80;;;;;;4936233;29;20032;-59
2022/07/26 11:07:08;;;;;;;10.15;5.30;;;23.30;95.80;;;;;;4931916;29;20053;-58
2022/07/26 11:09:34;;;;;;;16.77;6.05;;;23.00;95.10;;;;;;4934794;29;20031;-58
2022/07/26 11:12:18;;;;;;;10.77;5.65;;;22.80;95.70;;;;;;4933753;29;20066;-59
2022/07/26 11:14:44;;;;;;;10.90;5.18;;;22.80;95.80;;;;;;4928857;29;20429;-56
2022/07/26 11:17:27;;;;;;;14.80;5.78;;;23.10;95.90;;;;;;4933999;29;20032;-57
2022/07/26 11:19:53;;;;;;;10.88;6.35;;;23.50;96.70;;;;;;4929809;29;20023;-57
2022/07/26 11:22:19;;;;;;;11.45;5.47;;;23.90;95.00;;;;;;4931810;29;20031;-53
2022/07/26 11:24:45;;;;;;;8.80;5.03;;;24.60;94.50;;;;;;4935241;29;20063;-55
2022/07/26 11:27:11;;;;;;;13.07;6.15;;;24.70;93.40;;;;;;4942873;28;20062;-57
2022/07/26 11:29:38;;;;;;;9.50;4.32;;;24.70;92.60;;;;;;4924319;28;21533;-58
2022/07/26 11:32:04;;;;;;;10.70;3.50;;;24.80;92.50;;;;;;4931998;29;20035;-57
2022/07/26 11:34:32;;;;;;;8.60;4.15;;;25.20;92.80;;;;;;4938268;29;20020;-56
2022/07/26 11:37:00;;;;;;;9.85;3.15;;;25.50;90.70;;;;;;4945141;29;20034;-54
2022/07/26 11:39:29;;;;;;;5.07;2.63;;;25.70;87.50;;;;;;4940483;29;20070;-58
2022/07/26 11:41:59;;;;;;;5.30;2.28;;;25.60;88.00;;;;;;4937309;29;20027;-59
2022/07/26 11:44:25;;;;;;;8.68;2.20;;;26.20;87.10;;;;;;4942221;29;20034;-58
2022/07/26 11:46:51;;;;;;;9.43;2.05;;;26.30;82.00;;;;;;4947556;29;20077;-59
2022/07/26 11:49:25;;;;;;;6.53;2.50;;;26.60;83.80;;;;;;4932307;29;20124;-58
2022/07/26 11:51:50;;;;;;;;;;;26.80;81.10;;;;;;4930150;29;20114;-54
2022/07/26 11:54:16;;;;;;;7.40;2.58;;;26.60;80.70;;;;;;4940037;29;20002;-60
2022/07/26 11:56:56;;;;;;;10.38;2.75;;;26.80;81.30;;;;;;4925870;29;20028;-60
2022/07/26 11:59:24;;;;;;;9.70;2.10;;;26.60;82.40;;;;;;4931751;29;20032;-58
2022/07/26 12:01:50;;;;;;;8.18;2.45;;;26.30;82.00;;;;;;4933036;29;20028;-58
2022/07/26 12:04:32;;;;;;;7.47;2.33;;;25.80;84.20;;;;;;4945334;28;20032;-59
2022/07/26 12:07:00;;;;;;;6.63;2.05;;;25.20;86.80;;;;;;4938303;29;20035;-59
2022/07/26 12:09:33;;;;;;;3.95;2.00;;;24.90;87.50;;;;;;4935420;29;20429;-57
2022/07/26 12:12:07;;;;;;;8.32;2.30;;;24.50;88.50;;;;;;4938061;28;20035;-60
2022/07/26 12:14:38;;;;;;;6.13;1.95;;;24.00;85.90;;;;;;4927827;29;20498;-58
2022/07/26 12:17:15;;;;;;;5.63;1.80;;;23.80;87.80;;;;;;4934256;29;20103;-58
2022/07/26 12:19:41;;;;;;;4.97;2.20;;;23.70;89.50;;;;;;4936642;29;20051;-55
2022/07/26 12:22:16;;;;;;;6.95;1.63;;;23.70;86.60;;;;;;4945072;28;20062;-58
2022/07/26 12:24:42;;;;;;;9.63;2.45;;;23.40;88.50;;;;;;4940352;29;20035;-57
2022/07/26 12:27:08;;;;;;;4.28;1.90;;;23.40;89.70;;;;;;4936730;29;20996;-58
2022/07/26 12:29:36;;;;;;;5.50;2.10;;;23.20;90.20;;;;;;4937142;29;20031;-57
2022/07/26 12:32:08;;;;;;;7.22;2.30;;;23.10;90.00;;;;;;4937778;28;20138;-57
2022/07/26 12:34:34;;;;;;;7.18;2.10;;;23.10;90.50;;;;;;4930302;29;20046;-59
2022/07/26 12:37:09;;;;;;;4.93;2.25;;;23.00;91.00;;;;;;4934332;28;20031;-56
2022/07/26 12:39:34;;;;;;;4.53;2.35;;;22.70;92.50;;;;;;4926400;29;20034;-59
2022/07/26 12:42:24;;;;;;;6.30;2.00;;;22.40;92.70;;;;;;4929643;29;20390;-59
2022/07/26 12:44:49;;;;;;;4.45;1.98;;;22.20;91.90;;;;;;4919381;29;20517;-59
2022/07/26 12:47:15;;;;;;;9.25;2.42;;;22.00;92.00;;;;;;4927984;29;20043;-62
2022/07/26 12:49:40;;;;;;;9.90;2.53;;;22.00;93.10;;;;;;4941865;29;20044;-58